sensor_id;sensor_type;location;lat;lon;timestamp;P1;durP1;ratioP1;P2;durP2;ratioP2
34765;SDS011;20984;43.508;1.504;2023-04-10T00:02:07;7.40;;;3.90;;
34765;SDS011;20984;43.508;1.504;2023-04-10T00:04:33;6.07;;;3.60;;
34765;SDS011;20984;43.508;1.504;2023-04-10T00:06:59;5.90;;;4.63;;
34765;SDS011;20984;43.508;1.504;2023-04-10T00:09:25;4.97;;;4.35;;
34765;SDS011;20984;43.508;1.504;2023-04-10T00:11:51;7.03;;;4.80;;
34765;SDS011;20984;43.508;1.504;2023-04-10T00:14:17;7.75;;;4.45;;
34765;SDS011;20984;43.508;1.504;2023-04-10T00:16:47;6.30;;;4.72;;
34765;SDS011;20984;43.508;1.504;2023-04-10T00:19:13;5.15;;;4.60;;
34765;SDS011;20984;43.508;1.504;2023-04-10T00:21:39;6.25;;;4.25;;
34765;SDS011;20984;43.508;1.504;2023-04-10T00:24:05;5.40;;;4.50;;
34765;SDS011;20984;43.508;1.504;2023-04-10T00:26:31;7.47;;;4.15;;
34765;SDS011;20984;43.508;1.504;2023-04-10T00:28:56;4.35;;;3.95;;
34765;SDS011;20984;43.508;1.504;2023-04-10T00:31:22;4.50;;;4.10;;
34765;SDS011;20984;43.508;1.504;2023-04-10T00:33:48;6.85;;;4.65;;
34765;SDS011;20984;43.508;1.504;2023-04-10T00:36:13;7.35;;;4.55;;
34765;SDS011;20984;43.508;1.504;2023-04-10T00:38:39;6.15;;;4.80;;
34765;SDS011;20984;43.508;1.504;2023-04-10T00:41:06;8.13;;;4.60;;
34765;SDS011;20984;43.508;1.504;2023-04-10T00:43:31;5.50;;;4.65;;
34765;SDS011;20984;43.508;1.504;2023-04-10T00:45:57;6.63;;;5.13;;
34765;SDS011;20984;43.508;1.504;2023-04-10T00:48:23;5.90;;;5.15;;
34765;SDS011;20984;43.508;1.504;2023-04-10T00:50:49;6.63;;;4.93;;
34765;SDS011;20984;43.508;1.504;2023-04-10T00:53:15;4.45;;;4.05;;
34765;SDS011;20984;43.508;1.504;2023-04-10T00:55:41;5.32;;;4.82;;
34765;SDS011;20984;43.508;1.504;2023-04-10T00:58:07;5.18;;;4.28;;
34765;SDS011;20984;43.508;1.504;2023-04-10T01:00:38;7.55;;;4.25;;
34765;SDS011;20984;43.508;1.504;2023-04-10T01:03:05;6.05;;;4.60;;
34765;SDS011;20984;43.508;1.504;2023-04-10T01:05:38;4.82;;;4.32;;
34765;SDS011;20984;43.508;1.504;2023-04-10T01:08:16;4.90;;;4.43;;
34765;SDS011;20984;43.508;1.504;2023-04-10T01:10:51;6.95;;;4.70;;
34765;SDS011;20984;43.508;1.504;2023-04-10T01:15:51;4.80;;;3.92;;
34765;SDS011;20984;43.508;1.504;2023-04-10T01:18:30;5.93;;;4.22;;
34765;SDS011;20984;43.508;1.504;2023-04-10T01:21:04;4.70;;;4.30;;
34765;SDS011;20984;43.508;1.504;2023-04-10T01:23:50;4.40;;;4.00;;
34765;SDS011;20984;43.508;1.504;2023-04-10T01:29:08;4.57;;;4.18;;
34765;SDS011;20984;43.508;1.504;2023-04-10T01:31:51;5.03;;;4.53;;
34765;SDS011;20984;43.508;1.504;2023-04-10T01:34:22;5.60;;;4.30;;
34765;SDS011;20984;43.508;1.504;2023-04-10T01:36:54;4.93;;;4.43;;
34765;SDS011;20984;43.508;1.504;2023-04-10T01:39:36;5.35;;;4.50;;
34765;SDS011;20984;43.508;1.504;2023-04-10T01:42:05;5.70;;;5.00;;
34765;SDS011;20984;43.508;1.504;2023-04-10T01:44:33;5.53;;;4.93;;
34765;SDS011;20984;43.508;1.504;2023-04-10T01:47:02;9.55;;;5.03;;
34765;SDS011;20984;43.508;1.504;2023-04-10T01:49:31;5.50;;;4.72;;
34765;SDS011;20984;43.508;1.504;2023-04-10T01:51:59;10.15;;;5.10;;
34765;SDS011;20984;43.508;1.504;2023-04-10T01:54:26;9.02;;;5.55;;
34765;SDS011;20984;43.508;1.504;2023-04-10T01:56:52;8.20;;;4.88;;
34765;SDS011;20984;43.508;1.504;2023-04-10T01:59:17;7.00;;;4.97;;
34765;SDS011;20984;43.508;1.504;2023-04-10T02:01:44;7.10;;;4.85;;
34765;SDS011;20984;43.508;1.504;2023-04-10T02:04:10;4.95;;;4.40;;
34765;SDS011;20984;43.508;1.504;2023-04-10T02:06:39;6.15;;;4.70;;
34765;SDS011;20984;43.508;1.504;2023-04-10T02:09:22;9.00;;;4.50;;
34765;SDS011;20984;43.508;1.504;2023-04-10T02:11:59;5.10;;;4.45;;
34765;SDS011;20984;43.508;1.504;2023-04-10T02:14:29;7.32;;;4.45;;
34765;SDS011;20984;43.508;1.504;2023-04-10T02:16:56;4.35;;;3.95;;
34765;SDS011;20984;43.508;1.504;2023-04-10T02:19:23;5.60;;;4.28;;
34765;SDS011;20984;43.508;1.504;2023-04-10T02:21:50;5.68;;;3.88;;
34765;SDS011;20984;43.508;1.504;2023-04-10T02:24:17;5.93;;;3.80;;
34765;SDS011;20984;43.508;1.504;2023-04-10T02:26:45;5.90;;;4.97;;
34765;SDS011;20984;43.508;1.504;2023-04-10T02:29:11;4.65;;;4.25;;
34765;SDS011;20984;43.508;1.504;2023-04-10T02:31:37;6.53;;;4.93;;
34765;SDS011;20984;43.508;1.504;2023-04-10T02:34:03;5.25;;;4.30;;
34765;SDS011;20984;43.508;1.504;2023-04-10T02:36:29;8.27;;;5.43;;
34765;SDS011;20984;43.508;1.504;2023-04-10T02:38:55;6.93;;;3.95;;
34765;SDS011;20984;43.508;1.504;2023-04-10T02:41:20;4.68;;;4.03;;
34765;SDS011;20984;43.508;1.504;2023-04-10T02:43:46;5.03;;;4.07;;
34765;SDS011;20984;43.508;1.504;2023-04-10T02:46:12;5.03;;;4.47;;
34765;SDS011;20984;43.508;1.504;2023-04-10T02:48:37;5.32;;;4.47;;
34765;SDS011;20984;43.508;1.504;2023-04-10T02:51:03;4.55;;;4.15;;
34765;SDS011;20984;43.508;1.504;2023-04-10T02:53:29;5.60;;;5.00;;
34765;SDS011;20984;43.508;1.504;2023-04-10T02:55:56;5.10;;;4.57;;
34765;SDS011;20984;43.508;1.504;2023-04-10T02:58:22;7.03;;;4.35;;
34765;SDS011;20984;43.508;1.504;2023-04-10T03:00:48;6.05;;;4.07;;
34765;SDS011;20984;43.508;1.504;2023-04-10T03:03:14;5.88;;;4.20;;
34765;SDS011;20984;43.508;1.504;2023-04-10T03:05:41;5.82;;;4.68;;
34765;SDS011;20984;43.508;1.504;2023-04-10T03:08:06;5.63;;;4.63;;
34765;SDS011;20984;43.508;1.504;2023-04-10T03:10:32;7.43;;;4.57;;
34765;SDS011;20984;43.508;1.504;2023-04-10T03:12:57;6.35;;;4.53;;
34765;SDS011;20984;43.508;1.504;2023-04-10T03:15:23;7.20;;;4.65;;
34765;SDS011;20984;43.508;1.504;2023-04-10T03:17:49;4.40;;;4.00;;
34765;SDS011;20984;43.508;1.504;2023-04-10T03:20:14;4.78;;;4.22;;
34765;SDS011;20984;43.508;1.504;2023-04-10T03:22:41;10.30;;;4.13;;
34765;SDS011;20984;43.508;1.504;2023-04-10T03:25:06;8.20;;;3.80;;
34765;SDS011;20984;43.508;1.504;2023-04-10T03:27:32;5.20;;;4.18;;
34765;SDS011;20984;43.508;1.504;2023-04-10T03:29:59;5.15;;;3.85;;
34765;SDS011;20984;43.508;1.504;2023-04-10T03:32:26;7.43;;;4.10;;
34765;SDS011;20984;43.508;1.504;2023-04-10T03:34:55;5.65;;;4.03;;
34765;SDS011;20984;43.508;1.504;2023-04-10T03:37:21;6.38;;;4.30;;
34765;SDS011;20984;43.508;1.504;2023-04-10T03:39:47;7.13;;;4.28;;
34765;SDS011;20984;43.508;1.504;2023-04-10T03:42:12;4.80;;;3.90;;
34765;SDS011;20984;43.508;1.504;2023-04-10T03:44:38;4.75;;;4.10;;
34765;SDS011;20984;43.508;1.504;2023-04-10T03:47:04;5.13;;;4.40;;
34765;SDS011;20984;43.508;1.504;2023-04-10T03:49:29;4.38;;;3.97;;
34765;SDS011;20984;43.508;1.504;2023-04-10T03:51:55;7.15;;;4.15;;
34765;SDS011;20984;43.508;1.504;2023-04-10T03:54:21;6.60;;;4.00;;
34765;SDS011;20984;43.508;1.504;2023-04-10T03:56:46;5.15;;;4.50;;
34765;SDS011;20984;43.508;1.504;2023-04-10T03:59:12;4.93;;;3.80;;
34765;SDS011;20984;43.508;1.504;2023-04-10T04:01:37;5.40;;;4.68;;
34765;SDS011;20984;43.508;1.504;2023-04-10T04:04:03;9.10;;;4.35;;
34765;SDS011;20984;43.508;1.504;2023-04-10T04:06:29;9.13;;;4.32;;
34765;SDS011;20984;43.508;1.504;2023-04-10T04:08:55;4.63;;;4.20;;
34765;SDS011;20984;43.508;1.504;2023-04-10T04:11:21;6.20;;;4.15;;
34765;SDS011;20984;43.508;1.504;2023-04-10T04:13:47;8.85;;;4.13;;
34765;SDS011;20984;43.508;1.504;2023-04-10T04:16:13;6.78;;;4.03;;
34765;SDS011;20984;43.508;1.504;2023-04-10T04:18:38;4.93;;;4.13;;
34765;SDS011;20984;43.508;1.504;2023-04-10T04:21:04;5.00;;;4.50;;
34765;SDS011;20984;43.508;1.504;2023-04-10T04:23:32;4.95;;;4.13;;
34765;SDS011;20984;43.508;1.504;2023-04-10T04:25:58;7.35;;;3.90;;
34765;SDS011;20984;43.508;1.504;2023-04-10T04:28:23;11.98;;;5.07;;
34765;SDS011;20984;43.508;1.504;2023-04-10T04:30:49;5.10;;;4.60;;
34765;SDS011;20984;43.508;1.504;2023-04-10T04:33:15;9.35;;;4.38;;
34765;SDS011;20984;43.508;1.504;2023-04-10T04:35:41;4.60;;;4.13;;
34765;SDS011;20984;43.508;1.504;2023-04-10T04:38:06;8.63;;;5.03;;
34765;SDS011;20984;43.508;1.504;2023-04-10T04:40:32;6.40;;;4.10;;
34765;SDS011;20984;43.508;1.504;2023-04-10T04:42:57;5.68;;;4.47;;
34765;SDS011;20984;43.508;1.504;2023-04-10T04:45:23;6.00;;;4.30;;
34765;SDS011;20984;43.508;1.504;2023-04-10T04:47:49;5.43;;;4.28;;
34765;SDS011;20984;43.508;1.504;2023-04-10T04:50:15;4.50;;;3.85;;
34765;SDS011;20984;43.508;1.504;2023-04-10T04:52:41;9.05;;;3.70;;
34765;SDS011;20984;43.508;1.504;2023-04-10T04:55:08;5.55;;;4.32;;
34765;SDS011;20984;43.508;1.504;2023-04-10T04:57:34;7.75;;;4.60;;
34765;SDS011;20984;43.508;1.504;2023-04-10T04:59:59;5.45;;;4.43;;
34765;SDS011;20984;43.508;1.504;2023-04-10T05:02:25;7.53;;;5.07;;
34765;SDS011;20984;43.508;1.504;2023-04-10T05:04:50;8.50;;;5.13;;
34765;SDS011;20984;43.508;1.504;2023-04-10T05:07:16;7.60;;;5.25;;
34765;SDS011;20984;43.508;1.504;2023-04-10T05:09:42;6.45;;;5.50;;
34765;SDS011;20984;43.508;1.504;2023-04-10T05:12:07;5.50;;;4.85;;
34765;SDS011;20984;43.508;1.504;2023-04-10T05:14:33;5.68;;;5.05;;
34765;SDS011;20984;43.508;1.504;2023-04-10T05:16:59;5.38;;;4.50;;
34765;SDS011;20984;43.508;1.504;2023-04-10T05:19:24;6.03;;;4.82;;
34765;SDS011;20984;43.508;1.504;2023-04-10T05:21:50;6.93;;;5.13;;
34765;SDS011;20984;43.508;1.504;2023-04-10T05:24:16;8.32;;;5.05;;
34765;SDS011;20984;43.508;1.504;2023-04-10T05:26:41;5.93;;;5.05;;
34765;SDS011;20984;43.508;1.504;2023-04-10T05:29:07;13.10;;;5.50;;
34765;SDS011;20984;43.508;1.504;2023-04-10T05:31:33;7.30;;;5.47;;
34765;SDS011;20984;43.508;1.504;2023-04-10T05:33:58;6.43;;;4.70;;
34765;SDS011;20984;43.508;1.504;2023-04-10T05:36:24;12.00;;;4.93;;
34765;SDS011;20984;43.508;1.504;2023-04-10T05:38:50;12.77;;;5.90;;
34765;SDS011;20984;43.508;1.504;2023-04-10T05:41:16;8.35;;;5.95;;
34765;SDS011;20984;43.508;1.504;2023-04-10T05:43:42;13.60;;;6.00;;
34765;SDS011;20984;43.508;1.504;2023-04-10T05:46:07;7.72;;;5.90;;
34765;SDS011;20984;43.508;1.504;2023-04-10T05:48:33;14.90;;;7.20;;
34765;SDS011;20984;43.508;1.504;2023-04-10T05:50:59;7.40;;;5.05;;
34765;SDS011;20984;43.508;1.504;2023-04-10T05:53:27;9.45;;;4.50;;
34765;SDS011;20984;43.508;1.504;2023-04-10T05:55:56;8.18;;;5.30;;
34765;SDS011;20984;43.508;1.504;2023-04-10T05:58:24;6.25;;;5.32;;
34765;SDS011;20984;43.508;1.504;2023-04-10T06:00:52;6.75;;;4.35;;
34765;SDS011;20984;43.508;1.504;2023-04-10T06:03:18;7.10;;;4.60;;
34765;SDS011;20984;43.508;1.504;2023-04-10T06:05:44;5.75;;;4.72;;
34765;SDS011;20984;43.508;1.504;2023-04-10T06:08:10;8.13;;;4.15;;
34765;SDS011;20984;43.508;1.504;2023-04-10T06:10:36;5.80;;;4.68;;
34765;SDS011;20984;43.508;1.504;2023-04-10T06:13:02;4.90;;;4.40;;
34765;SDS011;20984;43.508;1.504;2023-04-10T06:15:28;4.72;;;4.22;;
34765;SDS011;20984;43.508;1.504;2023-04-10T06:17:53;7.03;;;4.50;;
34765;SDS011;20984;43.508;1.504;2023-04-10T06:20:19;6.93;;;4.80;;
34765;SDS011;20984;43.508;1.504;2023-04-10T06:22:45;8.40;;;4.47;;
34765;SDS011;20984;43.508;1.504;2023-04-10T06:25:11;5.25;;;4.43;;
34765;SDS011;20984;43.508;1.504;2023-04-10T06:27:37;7.47;;;4.43;;
34765;SDS011;20984;43.508;1.504;2023-04-10T06:30:03;6.32;;;4.40;;
34765;SDS011;20984;43.508;1.504;2023-04-10T06:32:29;6.60;;;4.85;;
34765;SDS011;20984;43.508;1.504;2023-04-10T06:34:55;7.40;;;4.13;;
34765;SDS011;20984;43.508;1.504;2023-04-10T06:37:27;4.53;;;3.70;;
34765;SDS011;20984;43.508;1.504;2023-04-10T06:42:33;5.72;;;4.30;;
34765;SDS011;20984;43.508;1.504;2023-04-10T06:44:59;5.80;;;4.53;;
34765;SDS011;20984;43.508;1.504;2023-04-10T06:47:25;6.53;;;4.35;;
34765;SDS011;20984;43.508;1.504;2023-04-10T06:49:51;7.55;;;4.28;;
34765;SDS011;20984;43.508;1.504;2023-04-10T06:52:17;4.65;;;4.00;;
34765;SDS011;20984;43.508;1.504;2023-04-10T06:54:42;7.72;;;4.70;;
34765;SDS011;20984;43.508;1.504;2023-04-10T06:57:08;7.75;;;4.53;;
34765;SDS011;20984;43.508;1.504;2023-04-10T06:59:34;11.65;;;5.40;;
34765;SDS011;20984;43.508;1.504;2023-04-10T07:02:02;5.25;;;4.70;;
34765;SDS011;20984;43.508;1.504;2023-04-10T07:04:28;8.27;;;5.00;;
34765;SDS011;20984;43.508;1.504;2023-04-10T07:06:55;5.68;;;4.85;;
34765;SDS011;20984;43.508;1.504;2023-04-10T07:09:20;6.50;;;4.82;;
34765;SDS011;20984;43.508;1.504;2023-04-10T07:11:46;7.25;;;4.65;;
34765;SDS011;20984;43.508;1.504;2023-04-10T07:14:12;6.60;;;5.00;;
34765;SDS011;20984;43.508;1.504;2023-04-10T07:16:37;6.32;;;4.70;;
34765;SDS011;20984;43.508;1.504;2023-04-10T07:19:03;6.78;;;4.97;;
34765;SDS011;20984;43.508;1.504;2023-04-10T07:21:29;6.20;;;4.60;;
34765;SDS011;20984;43.508;1.504;2023-04-10T07:23:55;5.80;;;4.82;;
34765;SDS011;20984;43.508;1.504;2023-04-10T07:26:21;6.07;;;4.60;;
34765;SDS011;20984;43.508;1.504;2023-04-10T07:28:46;6.65;;;4.78;;
34765;SDS011;20984;43.508;1.504;2023-04-10T07:31:12;7.10;;;4.55;;
34765;SDS011;20984;43.508;1.504;2023-04-10T07:33:38;9.95;;;4.93;;
34765;SDS011;20984;43.508;1.504;2023-04-10T07:36:04;10.05;;;4.88;;
34765;SDS011;20984;43.508;1.504;2023-04-10T07:38:31;9.73;;;5.10;;
34765;SDS011;20984;43.508;1.504;2023-04-10T07:40:57;16.92;;;7.38;;
34765;SDS011;20984;43.508;1.504;2023-04-10T07:43:23;14.65;;;7.65;;
34765;SDS011;20984;43.508;1.504;2023-04-10T07:45:50;26.13;;;8.07;;
34765;SDS011;20984;43.508;1.504;2023-04-10T07:48:15;22.23;;;9.32;;
34765;SDS011;20984;43.508;1.504;2023-04-10T07:50:41;17.50;;;8.70;;
34765;SDS011;20984;43.508;1.504;2023-04-10T07:53:07;21.10;;;8.85;;
34765;SDS011;20984;43.508;1.504;2023-04-10T07:55:42;14.50;;;9.10;;
34765;SDS011;20984;43.508;1.504;2023-04-10T07:58:09;13.00;;;7.65;;
34765;SDS011;20984;43.508;1.504;2023-04-10T08:00:35;15.45;;;8.50;;
34765;SDS011;20984;43.508;1.504;2023-04-10T08:03:01;13.38;;;7.72;;
34765;SDS011;20984;43.508;1.504;2023-04-10T08:05:28;13.55;;;7.82;;
34765;SDS011;20984;43.508;1.504;2023-04-10T08:07:54;13.80;;;7.10;;
34765;SDS011;20984;43.508;1.504;2023-04-10T08:10:19;11.93;;;7.97;;
34765;SDS011;20984;43.508;1.504;2023-04-10T08:12:45;21.65;;;8.00;;
34765;SDS011;20984;43.508;1.504;2023-04-10T08:15:11;12.15;;;7.57;;
34765;SDS011;20984;43.508;1.504;2023-04-10T08:17:36;18.23;;;8.32;;
34765;SDS011;20984;43.508;1.504;2023-04-10T08:20:02;15.88;;;8.55;;
34765;SDS011;20984;43.508;1.504;2023-04-10T08:22:29;14.30;;;7.63;;
34765;SDS011;20984;43.508;1.504;2023-04-10T08:24:54;18.50;;;8.30;;
34765;SDS011;20984;43.508;1.504;2023-04-10T08:27:20;17.02;;;8.05;;
34765;SDS011;20984;43.508;1.504;2023-04-10T08:29:46;21.10;;;8.15;;
34765;SDS011;20984;43.508;1.504;2023-04-10T08:32:11;17.13;;;8.80;;
34765;SDS011;20984;43.508;1.504;2023-04-10T08:34:37;18.00;;;7.90;;
34765;SDS011;20984;43.508;1.504;2023-04-10T08:37:06;12.68;;;7.90;;
34765;SDS011;20984;43.508;1.504;2023-04-10T08:39:36;15.85;;;8.68;;
34765;SDS011;20984;43.508;1.504;2023-04-10T08:42:02;18.67;;;8.32;;
34765;SDS011;20984;43.508;1.504;2023-04-10T08:44:29;16.90;;;8.52;;
34765;SDS011;20984;43.508;1.504;2023-04-10T08:46:57;13.63;;;7.53;;
34765;SDS011;20984;43.508;1.504;2023-04-10T08:52:05;11.93;;;7.95;;
34765;SDS011;20984;43.508;1.504;2023-04-10T08:54:37;25.05;;;8.20;;
34765;SDS011;20984;43.508;1.504;2023-04-10T08:57:05;15.07;;;7.47;;
34765;SDS011;20984;43.508;1.504;2023-04-10T08:59:31;17.50;;;6.93;;
34765;SDS011;20984;43.508;1.504;2023-04-10T09:01:58;15.45;;;6.72;;
34765;SDS011;20984;43.508;1.504;2023-04-10T09:04:24;15.82;;;7.10;;
34765;SDS011;20984;43.508;1.504;2023-04-10T09:06:53;11.63;;;6.20;;
34765;SDS011;20984;43.508;1.504;2023-04-10T09:09:18;17.67;;;8.25;;
34765;SDS011;20984;43.508;1.504;2023-04-10T09:14:20;14.23;;;7.47;;
34765;SDS011;20984;43.508;1.504;2023-04-10T09:16:50;19.70;;;6.85;;
34765;SDS011;20984;43.508;1.504;2023-04-10T09:19:29;12.73;;;6.38;;
34765;SDS011;20984;43.508;1.504;2023-04-10T09:21:55;12.05;;;7.28;;
34765;SDS011;20984;43.508;1.504;2023-04-10T09:24:24;14.77;;;6.43;;
34765;SDS011;20984;43.508;1.504;2023-04-10T09:26:51;11.10;;;7.03;;
34765;SDS011;20984;43.508;1.504;2023-04-10T09:29:17;10.57;;;6.78;;
34765;SDS011;20984;43.508;1.504;2023-04-10T09:31:43;9.00;;;5.90;;
34765;SDS011;20984;43.508;1.504;2023-04-10T09:36:36;10.93;;;6.82;;
34765;SDS011;20984;43.508;1.504;2023-04-10T09:39:03;14.40;;;5.43;;
34765;SDS011;20984;43.508;1.504;2023-04-10T09:41:29;12.32;;;7.18;;
34765;SDS011;20984;43.508;1.504;2023-04-10T09:44:05;16.67;;;5.75;;
34765;SDS011;20984;43.508;1.504;2023-04-10T09:46:33;13.43;;;6.32;;
34765;SDS011;20984;43.508;1.504;2023-04-10T09:48:59;9.13;;;5.45;;
34765;SDS011;20984;43.508;1.504;2023-04-10T09:51:32;8.65;;;6.00;;
34765;SDS011;20984;43.508;1.504;2023-04-10T09:53:58;8.90;;;5.90;;
34765;SDS011;20984;43.508;1.504;2023-04-10T09:56:25;11.60;;;5.72;;
34765;SDS011;20984;43.508;1.504;2023-04-10T09:58:58;17.75;;;6.03;;
34765;SDS011;20984;43.508;1.504;2023-04-10T10:01:28;15.02;;;5.70;;
34765;SDS011;20984;43.508;1.504;2023-04-10T10:03:58;15.65;;;7.38;;
34765;SDS011;20984;43.508;1.504;2023-04-10T10:06:26;11.18;;;6.68;;
34765;SDS011;20984;43.508;1.504;2023-04-10T10:08:54;16.45;;;6.70;;
34765;SDS011;20984;43.508;1.504;2023-04-10T10:11:20;11.98;;;5.80;;
34765;SDS011;20984;43.508;1.504;2023-04-10T10:13:49;12.65;;;5.95;;
34765;SDS011;20984;43.508;1.504;2023-04-10T10:21:35;17.33;;;6.55;;
34765;SDS011;20984;43.508;1.504;2023-04-10T10:24:02;13.55;;;6.38;;
34765;SDS011;20984;43.508;1.504;2023-04-10T10:29:03;13.32;;;6.97;;
34765;SDS011;20984;43.508;1.504;2023-04-10T10:31:32;12.00;;;6.13;;
34765;SDS011;20984;43.508;1.504;2023-04-10T10:33:59;7.68;;;5.57;;
34765;SDS011;20984;43.508;1.504;2023-04-10T10:36:32;20.38;;;5.53;;
34765;SDS011;20984;43.508;1.504;2023-04-10T10:42:01;18.33;;;5.85;;
34765;SDS011;20984;43.508;1.504;2023-04-10T10:44:40;16.30;;;6.70;;
34765;SDS011;20984;43.508;1.504;2023-04-10T10:47:14;15.60;;;6.88;;
34765;SDS011;20984;43.508;1.504;2023-04-10T10:49:51;15.52;;;5.93;;
34765;SDS011;20984;43.508;1.504;2023-04-10T10:52:37;10.30;;;5.70;;
34765;SDS011;20984;43.508;1.504;2023-04-10T10:57:53;9.63;;;5.40;;
34765;SDS011;20984;43.508;1.504;2023-04-10T11:00:20;13.45;;;5.75;;
34765;SDS011;20984;43.508;1.504;2023-04-10T11:08:16;12.35;;;5.47;;
34765;SDS011;20984;43.508;1.504;2023-04-10T11:13:31;12.48;;;5.25;;
34765;SDS011;20984;43.508;1.504;2023-04-10T11:15:59;11.88;;;5.28;;
34765;SDS011;20984;43.508;1.504;2023-04-10T11:31:44;10.88;;;4.85;;
34765;SDS011;20984;43.508;1.504;2023-04-10T11:34:23;8.00;;;4.68;;
34765;SDS011;20984;43.508;1.504;2023-04-10T11:36:51;8.13;;;5.05;;
34765;SDS011;20984;43.508;1.504;2023-04-10T11:39:17;13.18;;;5.70;;
34765;SDS011;20984;43.508;1.504;2023-04-10T11:44:29;9.40;;;4.95;;
34765;SDS011;20984;43.508;1.504;2023-04-10T11:46:56;14.68;;;6.03;;
34765;SDS011;20984;43.508;1.504;2023-04-10T11:49:24;10.30;;;5.80;;
34765;SDS011;20984;43.508;1.504;2023-04-10T11:51:51;10.18;;;5.95;;
34765;SDS011;20984;43.508;1.504;2023-04-10T11:54:21;9.10;;;4.90;;
34765;SDS011;20984;43.508;1.504;2023-04-10T11:59:23;11.30;;;6.05;;
34765;SDS011;20984;43.508;1.504;2023-04-10T12:01:49;9.38;;;5.57;;
34765;SDS011;20984;43.508;1.504;2023-04-10T12:04:20;9.57;;;6.30;;
34765;SDS011;20984;43.508;1.504;2023-04-10T12:06:50;13.60;;;5.38;;
34765;SDS011;20984;43.508;1.504;2023-04-10T12:11:57;10.18;;;5.75;;
34765;SDS011;20984;43.508;1.504;2023-04-10T12:14:28;7.93;;;5.25;;
34765;SDS011;20984;43.508;1.504;2023-04-10T12:17:02;9.23;;;5.55;;
34765;SDS011;20984;43.508;1.504;2023-04-10T12:19:29;7.93;;;4.55;;
34765;SDS011;20984;43.508;1.504;2023-04-10T12:21:56;12.88;;;6.47;;
34765;SDS011;20984;43.508;1.504;2023-04-10T12:27:20;13.98;;;5.07;;
34765;SDS011;20984;43.508;1.504;2023-04-10T12:29:48;10.10;;;5.22;;
34765;SDS011;20984;43.508;1.504;2023-04-10T12:32:15;12.55;;;5.82;;
34765;SDS011;20984;43.508;1.504;2023-04-10T12:34:48;14.80;;;4.57;;
34765;SDS011;20984;43.508;1.504;2023-04-10T12:37:21;11.07;;;5.45;;
34765;SDS011;20984;43.508;1.504;2023-04-10T12:39:46;8.20;;;5.15;;
34765;SDS011;20984;43.508;1.504;2023-04-10T12:42:13;11.25;;;5.25;;
34765;SDS011;20984;43.508;1.504;2023-04-10T12:44:49;13.07;;;5.00;;
34765;SDS011;20984;43.508;1.504;2023-04-10T12:47:16;14.07;;;5.65;;
34765;SDS011;20984;43.508;1.504;2023-04-10T12:50:01;12.35;;;6.22;;
34765;SDS011;20984;43.508;1.504;2023-04-10T12:52:28;9.65;;;5.18;;
34765;SDS011;20984;43.508;1.504;2023-04-10T12:55:06;15.13;;;5.78;;
34765;SDS011;20984;43.508;1.504;2023-04-10T12:57:39;13.48;;;5.22;;
34765;SDS011;20984;43.508;1.504;2023-04-10T13:00:06;14.55;;;5.90;;
34765;SDS011;20984;43.508;1.504;2023-04-10T13:02:33;12.13;;;5.75;;
34765;SDS011;20984;43.508;1.504;2023-04-10T13:05:00;13.95;;;5.35;;
34765;SDS011;20984;43.508;1.504;2023-04-10T13:07:26;12.35;;;5.15;;
34765;SDS011;20984;43.508;1.504;2023-04-10T13:09:51;9.85;;;5.10;;
34765;SDS011;20984;43.508;1.504;2023-04-10T13:12:17;9.95;;;5.10;;
34765;SDS011;20984;43.508;1.504;2023-04-10T13:14:43;14.68;;;6.38;;
34765;SDS011;20984;43.508;1.504;2023-04-10T13:17:08;11.68;;;5.60;;
34765;SDS011;20984;43.508;1.504;2023-04-10T13:19:34;11.00;;;5.30;;
34765;SDS011;20984;43.508;1.504;2023-04-10T13:21:59;10.95;;;5.45;;
34765;SDS011;20984;43.508;1.504;2023-04-10T13:24:26;11.40;;;4.97;;
34765;SDS011;20984;43.508;1.504;2023-04-10T13:26:52;15.25;;;5.88;;
34765;SDS011;20984;43.508;1.504;2023-04-10T13:29:18;13.07;;;5.43;;
34765;SDS011;20984;43.508;1.504;2023-04-10T13:31:44;10.95;;;6.28;;
34765;SDS011;20984;43.508;1.504;2023-04-10T13:34:09;8.95;;;5.63;;
34765;SDS011;20984;43.508;1.504;2023-04-10T13:36:35;11.38;;;5.25;;
34765;SDS011;20984;43.508;1.504;2023-04-10T13:39:01;13.77;;;5.13;;
34765;SDS011;20984;43.508;1.504;2023-04-10T13:41:26;11.05;;;5.18;;
34765;SDS011;20984;43.508;1.504;2023-04-10T13:43:52;10.68;;;5.13;;
34765;SDS011;20984;43.508;1.504;2023-04-10T13:46:18;16.25;;;5.18;;
34765;SDS011;20984;43.508;1.504;2023-04-10T13:48:43;10.63;;;5.22;;
34765;SDS011;20984;43.508;1.504;2023-04-10T13:51:09;11.93;;;6.00;;
34765;SDS011;20984;43.508;1.504;2023-04-10T13:53:35;10.25;;;5.35;;
34765;SDS011;20984;43.508;1.504;2023-04-10T13:56:00;10.20;;;5.78;;
34765;SDS011;20984;43.508;1.504;2023-04-10T13:58:26;11.68;;;5.45;;
34765;SDS011;20984;43.508;1.504;2023-04-10T14:00:55;10.23;;;5.45;;
34765;SDS011;20984;43.508;1.504;2023-04-10T14:03:21;8.52;;;5.05;;
34765;SDS011;20984;43.508;1.504;2023-04-10T14:05:46;10.73;;;4.75;;
34765;SDS011;20984;43.508;1.504;2023-04-10T14:08:14;8.13;;;4.97;;
34765;SDS011;20984;43.508;1.504;2023-04-10T14:10:40;12.25;;;5.22;;
34765;SDS011;20984;43.508;1.504;2023-04-10T14:13:06;13.30;;;5.22;;
34765;SDS011;20984;43.508;1.504;2023-04-10T14:15:32;11.77;;;4.45;;
34765;SDS011;20984;43.508;1.504;2023-04-10T14:17:58;22.27;;;6.80;;
34765;SDS011;20984;43.508;1.504;2023-04-10T14:20:23;7.15;;;5.25;;
34765;SDS011;20984;43.508;1.504;2023-04-10T14:22:49;7.22;;;4.70;;
34765;SDS011;20984;43.508;1.504;2023-04-10T14:25:15;12.48;;;5.00;;
34765;SDS011;20984;43.508;1.504;2023-04-10T14:27:43;9.38;;;4.97;;
34765;SDS011;20984;43.508;1.504;2023-04-10T14:30:09;10.27;;;4.95;;
34765;SDS011;20984;43.508;1.504;2023-04-10T14:32:36;10.18;;;5.80;;
34765;SDS011;20984;43.508;1.504;2023-04-10T14:35:03;8.20;;;4.25;;
34765;SDS011;20984;43.508;1.504;2023-04-10T14:37:28;7.40;;;4.10;;
34765;SDS011;20984;43.508;1.504;2023-04-10T14:39:54;8.60;;;4.82;;
34765;SDS011;20984;43.508;1.504;2023-04-10T14:42:20;12.05;;;5.72;;
34765;SDS011;20984;43.508;1.504;2023-04-10T14:44:47;13.43;;;4.22;;
34765;SDS011;20984;43.508;1.504;2023-04-10T14:47:13;8.40;;;4.05;;
34765;SDS011;20984;43.508;1.504;2023-04-10T14:49:39;6.95;;;4.00;;
34765;SDS011;20984;43.508;1.504;2023-04-10T14:52:05;8.27;;;4.05;;
34765;SDS011;20984;43.508;1.504;2023-04-10T14:54:31;8.15;;;3.92;;
34765;SDS011;20984;43.508;1.504;2023-04-10T14:56:57;9.57;;;3.85;;
34765;SDS011;20984;43.508;1.504;2023-04-10T14:59:23;9.18;;;3.90;;
34765;SDS011;20984;43.508;1.504;2023-04-10T15:01:48;9.77;;;4.30;;
34765;SDS011;20984;43.508;1.504;2023-04-10T15:04:14;7.15;;;3.80;;
34765;SDS011;20984;43.508;1.504;2023-04-10T15:06:40;11.68;;;4.75;;
34765;SDS011;20984;43.508;1.504;2023-04-10T15:09:05;12.90;;;3.70;;
34765;SDS011;20984;43.508;1.504;2023-04-10T15:11:31;5.45;;;3.42;;
34765;SDS011;20984;43.508;1.504;2023-04-10T15:13:57;14.65;;;4.18;;
34765;SDS011;20984;43.508;1.504;2023-04-10T15:16:24;9.82;;;3.78;;
34765;SDS011;20984;43.508;1.504;2023-04-10T15:18:50;8.07;;;3.40;;
34765;SDS011;20984;43.508;1.504;2023-04-10T15:21:15;5.32;;;3.50;;
34765;SDS011;20984;43.508;1.504;2023-04-10T15:23:41;6.95;;;3.60;;
34765;SDS011;20984;43.508;1.504;2023-04-10T15:26:11;6.47;;;3.28;;
34765;SDS011;20984;43.508;1.504;2023-04-10T15:28:38;9.23;;;3.63;;
34765;SDS011;20984;43.508;1.504;2023-04-10T15:31:03;11.80;;;4.45;;
34765;SDS011;20984;43.508;1.504;2023-04-10T15:33:29;5.82;;;3.58;;
34765;SDS011;20984;43.508;1.504;2023-04-10T15:35:55;14.15;;;3.60;;
34765;SDS011;20984;43.508;1.504;2023-04-10T15:38:21;13.00;;;4.07;;
34765;SDS011;20984;43.508;1.504;2023-04-10T15:40:50;8.90;;;3.50;;
34765;SDS011;20984;43.508;1.504;2023-04-10T15:43:16;9.52;;;3.58;;
34765;SDS011;20984;43.508;1.504;2023-04-10T15:45:42;10.80;;;4.38;;